Time;durP1;ratioP1;P1;durP2;ratioP2;P2;SDS_P1;SDS_P2;PMS_P1;PMS_P2;Temp;Humidity;BMP_temperature;BMP_pressure;BME280_temperature;BME280_humidity;BME280_pressure;Samples;Min_cycle;Max_cycle;Signal;HPM_P1;HPM_P2
2023/03/12 00:00:42;;;;;;;;;;;;;;;12.65;78.01;98598.38;5113355;28;20399;-74
2023/03/12 00:03:09;;;;;;;;;;;;;;;12.70;77.24;98601.28;5112737;28;20004;-74
2023/03/12 00:05:37;;;;;;;;;;;;;;;12.71;77.45;98600.28;5113078;28;19923;-73
2023/03/12 00:08:03;;;;;;;;;;;;;;;12.63;77.87;98605.66;5112598;28;19924;-74
2023/03/12 00:10:29;;;;;;;;;;;;;;;12.57;78.24;98611.66;5113180;28;19920;-74
2023/03/12 00:12:54;;;;;;;;;;;;;;;12.57;78.19;98616.13;5112551;28;19963;-73
2023/03/12 00:15:20;;;;;;;;;;;;;;;12.52;78.57;98621.13;5113221;28;20023;-74
2023/03/12 00:17:45;;;;;;;;;;;;;;;12.43;79.35;98615.06;5112745;28;20336;-74
2023/03/12 00:20:11;;;;;;;;;;;;;;;12.47;79.40;98621.66;5112387;28;19999;-76
2023/03/12 00:22:36;;;;;;;;;;;;;;;12.46;79.77;98625.31;5113533;28;19920;-75
2023/03/12 00:25:03;;;;;;;;;;;;;;;12.45;79.79;98639.53;5113513;28;19931;-74
2023/03/12 00:27:28;;;;;;;;;;;;;;;12.37;80.05;98634.28;5113472;28;19920;-74
2023/03/12 00:29:53;;;;;;;;;;;;;;;12.13;80.72;98634.47;5113381;28;19965;-74
2023/03/12 00:32:19;;;;;;;;;;;;;;;12.08;81.00;98626.22;5113838;28;19972;-74
2023/03/12 00:34:49;;;;;;;;;;;;;;;12.09;81.18;98630.53;5095005;28;19981;-74
2023/03/12 00:37:15;;;;;;;;;;;;;;;12.12;81.63;98648.69;5109534;28;20030;-75
2023/03/12 00:39:40;;;;;;;;;;;;;;;11.86;83.20;98655.09;5113014;28;19919;-75
2023/03/12 00:42:06;;;;;;;;;;;;;;;12.03;82.33;98660.31;5094401;28;19957;-75
2023/03/12 00:44:31;;;;;;;;;;;;;;;12.04;82.09;98654.03;5113616;28;19920;-75
2023/03/12 00:46:56;;;;;;;;;;;;;;;11.94;82.81;98661.34;5113009;28;19920;-75
2023/03/12 00:49:22;;;;;;;;;;;;;;;11.89;82.99;98670.63;5094693;28;19928;-74
2023/03/12 00:51:48;;;;;;;;;;;;;;;11.88;83.02;98663.69;5112891;28;19945;-74
2023/03/12 00:54:13;;;;;;;;;;;;;;;11.73;84.08;98661.91;5113175;28;19945;-73
2023/03/12 00:56:38;;;;;;;;;;;;;;;11.68;84.68;98662.41;5094979;28;19920;-74
2023/03/12 00:59:04;;;;;;;;;;;;;;;11.60;85.72;98665.09;5112960;28;19920;-75
2023/03/12 01:01:29;;;;;;;;;;;;;;;11.42;86.04;98669.78;5113253;28;19973;-75
2023/03/12 01:03:57;;;;;;;;;;;;;;;11.35;86.33;98667.00;5112533;28;19926;-75
2023/03/12 01:06:22;;;;;;;;;;;;;;;11.46;85.41;98685.13;5112612;28;20399;-74
2023/03/12 01:08:48;;;;;;;;;;;;;;;11.43;85.56;98687.25;5112144;28;19966;-75
2023/03/12 01:11:14;;;;;;;;;;;;;;;11.48;85.21;98683.16;5090368;28;19964;-75
2023/03/12 01:13:40;;;;;;;;;;;;;;;11.58;84.34;98682.94;5112903;28;19915;-75
2023/03/12 01:16:05;;;;;;;;;;;;;;;11.46;85.81;98690.41;5094208;28;19999;-74
2023/03/12 01:18:31;;;;;;;;;;;;;;;11.42;85.79;98688.28;5112639;28;20340;-74
2023/03/12 01:20:56;;;;;;;;;;;;;;;11.44;85.63;98694.19;5111434;28;20343;-74
2023/03/12 01:23:22;;;;;;;;;;;;;;;11.38;86.18;98686.94;5112066;28;19923;-74
2023/03/12 01:25:48;;;;;;;;;;;;;;;11.37;85.67;98686.13;5112126;28;20027;-74
2023/03/12 01:28:13;;;;;;;;;;;;;;;11.31;85.94;98691.28;5108161;28;19965;-74
2023/03/12 01:30:40;;;;;;;;;;;;;;;11.27;86.75;98695.22;5112710;28;19920;-75
2023/03/12 01:33:05;;;;;;;;;;;;;;;11.29;86.21;98698.53;5094074;28;20002;-74
2023/03/12 01:35:34;;;;;;;;;;;;;;;11.32;85.96;98703.47;5111936;28;19955;-75
2023/03/12 01:37:59;;;;;;;;;;;;;;;11.30;86.26;98705.47;5111365;28;19923;-75
2023/03/12 01:40:27;;;;;;;;;;;;;;;11.07;88.33;98705.34;5093546;28;19919;-74
2023/03/12 01:42:55;;;;;;;;;;;;;;;11.11;87.67;98695.25;5110976;28;20385;-74
2023/03/12 01:45:40;;;;;;;;;;;;;;;11.14;87.53;98700.19;5093639;28;20014;-73
2023/03/12 01:48:06;;;;;;;;;;;;;;;11.09;87.51;98701.53;5111909;28;20358;-74
2023/03/12 01:50:31;;;;;;;;;;;;;;;11.15;86.82;98696.56;5113383;28;19919;-75
2023/03/12 01:52:57;;;;;;;;;;;;;;;11.14;87.12;98700.19;5098302;28;19973;-73
2023/03/12 01:55:22;;;;;;;;;;;;;;;11.16;87.25;98703.50;5095686;28;20295;-74
2023/03/12 01:57:51;;;;;;;;;;;;;;;11.19;86.86;98721.66;5109735;28;19930;-75
2023/03/12 02:00:19;;;;;;;;;;;;;;;11.15;86.37;98728.25;5090990;28;20229;-74
2023/03/12 02:02:45;;;;;;;;;;;;;;;11.15;86.71;98722.97;5087090;28;20454;-73
2023/03/12 02:05:24;;;;;;;;;;;;;;;11.12;87.00;98728.59;5092607;28;19955;-73
2023/03/12 02:07:50;;;;;;;;;;;;;;;11.13;87.72;98735.53;5107974;28;20264;-73
2023/03/12 02:10:16;;;;;;;;;;;;;;;11.05;88.77;98737.19;5111476;28;20431;-74
2023/03/12 02:12:41;;;;;;;;;;;;;;;10.83;89.64;98766.88;5111434;28;20279;-74
2023/03/12 02:15:08;;;;;;;;;;;;;;;10.62;90.71;98774.41;5111406;28;19927;-72
2023/03/12 02:17:34;;;;;;;;;;;;;;;10.53;90.75;98772.75;5111730;28;20044;-73
2023/03/12 02:20:18;;;;;;;;;;;;;;;10.49;90.49;98768.75;5092808;28;19916;-74
2023/03/12 02:22:58;;;;;;;;;;;;;;;10.46;89.96;98769.09;5089199;28;20272;-74
2023/03/12 02:25:26;;;;;;;;;;;;;;;10.49;90.13;98774.03;5108587;28;19915;-75
2023/03/12 02:27:52;;;;;;;;;;;;;;;10.51;90.00;98766.81;5092257;28;20310;-74
2023/03/12 02:30:18;;;;;;;;;;;;;;;10.53;89.03;98780.66;5093134;28;19926;-75
2023/03/12 02:32:45;;;;;;;;;;;;;;;10.63;88.09;98789.25;5107389;28;19923;-74
2023/03/12 02:35:12;;;;;;;;;;;;;;;10.67;87.75;98801.13;5110584;28;19923;-74
2023/03/12 02:37:51;;;;;;;;;;;;;;;10.80;86.33;98792.75;5110913;28;20307;-74
2023/03/12 02:40:36;;;;;;;;;;;;;;;10.87;85.01;98802.50;5092297;28;19965;-74
2023/03/12 02:43:02;;;;;;;;;;;;;;;10.95;84.47;98806.97;5098703;28;19920;-74
2023/03/12 02:45:28;;;;;;;;;;;;;;;10.96;84.31;98809.44;5092380;28;19920;-74
2023/03/12 02:47:54;;;;;;;;;;;;;;;10.90;85.64;98810.06;5110312;28;19999;-74
2023/03/12 02:50:20;;;;;;;;;;;;;;;10.82;87.32;98818.00;5092613;28;20019;-74
2023/03/12 02:52:45;;;;;;;;;;;;;;;10.77;90.44;98819.47;5111030;28;19919;-74
2023/03/12 02:55:11;;;;;;;;;;;;;;;10.79;92.74;98815.66;5092041;28;19920;-74
2023/03/12 02:57:37;;;;;;;;;;;;;;;10.76;95.34;98816.00;5092048;28;19939;-74
2023/03/12 03:00:11;;;;;;;;;;;;;;;10.69;99.51;98820.28;5092138;28;19920;-74
2023/03/12 03:02:38;;;;;;;;;;;;;;;10.64;100.00;98830.50;5092370;28;20318;-74
2023/03/12 03:05:03;;;;;;;;;;;;;;;10.63;100.00;98834.09;5110547;28;20328;-74
2023/03/12 03:07:29;;;;;;;;;;;;;;;10.59;100.00;98844.16;5110734;28;19919;-75
2023/03/12 03:10:02;;;;;;;;;;;;;;;10.59;100.00;98845.97;5093960;28;20006;-74
2023/03/12 03:12:28;;;;;;;;;;;;;;;10.52;100.00;98852.88;5096074;28;20341;-75
2023/03/12 03:14:54;;;;;;;;;;;;;;;10.41;100.00;98872.44;5108307;27;20080;-74
2023/03/12 03:17:22;;;;;;;;;;;;;;;10.34;100.00;98881.97;5095906;28;20411;-74
2023/03/12 03:19:47;;;;;;;;;;;;;;;10.37;100.00;98896.66;5096288;28;19966;-74
2023/03/12 03:22:13;;;;;;;;;;;;;;;10.32;100.00;98899.75;5120752;28;19939;-74
2023/03/12 03:24:38;;;;;;;;;;;;;;;10.36;100.00;98910.84;5114608;28;20443;-73
2023/03/12 03:27:04;;;;;;;;;;;;;;;10.32;100.00;98914.75;5113911;28;20340;-73
2023/03/12 03:29:29;;;;;;;;;;;;;;;10.37;100.00;98910.66;5095988;28;20013;-74
2023/03/12 03:31:55;;;;;;;;;;;;;;;10.37;100.00;98917.78;5095717;28;20287;-73
2023/03/12 03:34:21;;;;;;;;;;;;;;;10.32;100.00;98925.28;5096179;28;19967;-74
2023/03/12 03:36:46;;;;;;;;;;;;;;;10.32;100.00;98920.84;5114602;28;19919;-73
2023/03/12 03:39:14;;;;;;;;;;;;;;;10.35;100.00;98935.53;5111541;28;19977;-73
2023/03/12 03:41:40;;;;;;;;;;;;;;;10.35;100.00;98935.53;5114122;28;19962;-74
2023/03/12 03:44:06;;;;;;;;;;;;;;;10.37;100.00;98944.13;5095392;28;19919;-74
2023/03/12 03:46:36;;;;;;;;;;;;;;;10.41;100.00;98961.28;5095730;28;19985;-74
2023/03/12 03:49:05;;;;;;;;;;;;;;;10.34;100.00;98965.53;5091960;28;19990;-74
2023/03/12 03:51:31;;;;;;;;;;;;;;;10.33;100.00;98969.16;5092438;28;20054;-74
2023/03/12 03:54:02;;;;;;;;;;;;;;;10.37;100.00;98970.50;5092099;28;19924;-74
2023/03/12 03:56:28;;;;;;;;;;;;;;;10.35;100.00;98975.09;5092465;28;19927;-73
2023/03/12 03:58:56;;;;;;;;;;;;;;;10.34;100.00;98976.91;5074873;28;20276;-75
2023/03/12 04:01:22;;;;;;;;;;;;;;;10.19;100.00;98984.53;5093584;28;19927;-75
2023/03/12 04:03:48;;;;;;;;;;;;;;;9.97;100.00;98990.28;5092006;28;20003;-74
2023/03/12 04:06:14;;;;;;;;;;;;;;;10.05;100.00;98987.72;5093147;28;20015;-74
2023/03/12 04:08:40;;;;;;;;;;;;;;;10.08;100.00;98992.66;5092058;28;19920;-75
2023/03/12 04:11:10;;;;;;;;;;;;;;;9.97;100.00;99003.47;5092036;28;19976;-74
2023/03/12 04:13:36;;;;;;;;;;;;;;;10.03;100.00;99005.50;5091955;28;19920;-74
2023/03/12 04:16:02;;;;;;;;;;;;;;;10.11;100.00;99002.94;5093081;28;20019;-74
2023/03/12 04:18:28;;;;;;;;;;;;;;;10.18;100.00;99009.28;5091862;28;20348;-74
2023/03/12 04:20:54;;;;;;;;;;;;;;;10.24;100.00;99003.41;5092902;28;20011;-74
2023/03/12 04:23:19;;;;;;;;;;;;;;;10.24;100.00;99003.41;5093279;28;19920;-74
2023/03/12 04:25:45;;;;;;;;;;;;;;;10.29;100.00;99010.00;5092026;28;19920;-74
2023/03/12 04:28:10;;;;;;;;;;;;;;;10.33;100.00;99016.63;5091053;28;20038;-74
2023/03/12 04:30:37;;;;;;;;;;;;;;;10.36;100.00;99016.31;5092791;28;19920;-74
2023/03/12 04:33:06;;;;;;;;;;;;;;;10.35;100.00;99015.50;5091320;28;19973;-74
2023/03/12 04:35:32;;;;;;;;;;;;;;;10.39;100.00;99026.56;5091738;28;19947;-75
2023/03/12 04:37:59;;;;;;;;;;;;;;;10.36;100.00;99034.78;5091288;28;19946;-74
2023/03/12 04:40:25;;;;;;;;;;;;;;;10.30;100.00;99032.75;5092988;28;19920;-73
2023/03/12 04:42:50;;;;;;;;;;;;;;;10.31;100.00;99040.50;5091204;28;19920;-74
2023/03/12 04:45:16;;;;;;;;;;;;;;;10.34;100.00;99071.03;5099667;28;20053;-74
2023/03/12 04:47:44;;;;;;;;;;;;;;;10.30;100.00;99069.69;5095925;28;19920;-75
2023/03/12 04:50:11;;;;;;;;;;;;;;;10.24;100.00;99066.69;5094550;28;19966;-75
2023/03/12 04:52:37;;;;;;;;;;;;;;;10.29;100.00;99073.28;5113526;28;20283;-76
2023/03/12 04:55:04;;;;;;;;;;;;;;;10.31;100.00;99068.72;5095044;28;19927;-76
2023/03/12 04:57:30;;;;;;;;;;;;;;;10.27;100.00;99069.00;5113289;28;19923;-76
2023/03/12 04:59:56;;;;;;;;;;;;;;;10.18;100.00;99072.56;5112785;28;19924;-76
2023/03/12 05:02:22;;;;;;;;;;;;;;;10.16;100.00;99069.25;5095046;28;19940;-75
2023/03/12 05:04:47;;;;;;;;;;;;;;;10.18;100.00;99075.19;5094693;28;20279;-77
2023/03/12 05:07:13;;;;;;;;;;;;;;;10.17;100.00;99083.25;5096239;28;19920;-76
2023/03/12 05:09:38;;;;;;;;;;;;;;;10.20;100.00;99086.41;5100791;28;20398;-75
2023/03/12 05:12:04;;;;;;;;;;;;;;;10.20;100.00;99083.75;5116826;28;19927;-75
2023/03/12 05:14:32;;;;;;;;;;;;;;;10.18;100.00;99082.28;5118004;28;20010;-76
2023/03/12 05:16:58;;;;;;;;;;;;;;;10.21;100.00;99095.13;5098867;28;19919;-76
2023/03/12 05:19:23;;;;;;;;;;;;;;;10.16;100.00;99092.97;5099848;28;19951;-76
2023/03/12 05:21:49;;;;;;;;;;;;;;;10.11;100.00;99103.09;5115880;28;20390;-75
2023/03/12 05:24:15;;;;;;;;;;;;;;;10.08;100.00;99106.03;5098851;28;19924;-74
2023/03/12 05:26:41;;;;;;;;;;;;;;;10.06;100.00;99112.44;5118096;28;19981;-76
2023/03/12 05:29:16;;;;;;;;;;;;;;;9.98;100.00;99097.38;5115536;28;19983;-76
2023/03/12 05:31:42;;;;;;;;;;;;;;;9.99;100.00;99098.22;5098421;28;19934;-75
2023/03/12 05:34:11;;;;;;;;;;;;;;;9.96;100.00;99099.31;5098236;28;19923;-76
2023/03/12 05:36:38;;;;;;;;;;;;;;;9.85;100.00;99104.81;5115218;28;19928;-75
2023/03/12 05:39:04;;;;;;;;;;;;;;;9.80;100.00;99096.53;5097843;28;19926;-74
2023/03/12 05:41:31;;;;;;;;;;;;;;;9.77;100.00;99102.94;5097822;28;19977;-76
2023/03/12 05:44:02;;;;;;;;;;;;;;;9.77;100.00;99117.91;5096753;28;19946;-75
2023/03/12 05:46:28;;;;;;;;;;;;;;;9.74;100.00;99118.19;5097441;28;19986;-75
2023/03/12 05:48:54;;;;;;;;;;;;;;;9.77;100.00;99125.81;5095894;28;20056;-76
2023/03/12 05:51:20;;;;;;;;;;;;;;;9.78;100.00;99124.81;5099819;28;19920;-76
2023/03/12 05:53:46;;;;;;;;;;;;;;;9.72;100.00;99122.81;5118915;28;19920;-75
2023/03/12 05:56:12;;;;;;;;;;;;;;;9.65;100.00;99134.91;5117147;28;20026;-76
2023/03/12 05:58:38;;;;;;;;;;;;;;;9.71;100.00;99137.78;5116849;28;19988;-76
2023/03/12 06:01:10;;;;;;;;;;;;;;;9.65;100.00;99137.53;5098571;28;19920;-75
2023/03/12 06:03:37;;;;;;;;;;;;;;;9.55;100.00;99142.00;5100573;28;19920;-77
2023/03/12 06:06:03;;;;;;;;;;;;;;;9.47;100.00;99144.56;5099233;28;19931;-78
2023/03/12 06:08:28;;;;;;;;;;;;;;;9.45;100.00;99142.91;5097812;28;19943;-75
2023/03/12 06:10:54;;;;;;;;;;;;;;;9.51;100.00;99159.09;5117864;28;19920;-75
2023/03/12 06:13:21;;;;;;;;;;;;;;;9.40;100.00;99160.09;5096257;28;19920;-75
2023/03/12 06:15:47;;;;;;;;;;;;;;;9.50;100.00;99170.59;5113658;28;20321;-76
2023/03/12 06:18:13;;;;;;;;;;;;;;;9.61;100.00;99184.41;5092678;28;19940;-76
2023/03/12 06:20:39;;;;;;;;;;;;;;;9.60;100.00;99187.22;5096853;28;19969;-77
2023/03/12 06:23:05;;;;;;;;;;;;;;;9.67;100.00;99175.09;5093180;28;19920;-75
2023/03/12 06:25:30;;;;;;;;;;;;;;;9.69;100.00;99196.84;5112361;28;19924;-76
2023/03/12 06:27:56;;;;;;;;;;;;;;;9.63;100.00;99205.34;5111944;28;20329;-75
2023/03/12 06:30:22;;;;;;;;;;;;;;;9.58;100.00;99204.94;5112691;28;19935;-75
2023/03/12 06:32:47;;;;;;;;;;;;;;;9.38;100.00;99218.19;5112933;28;19920;-74
2023/03/12 06:35:12;;;;;;;;;;;;;;;9.39;100.00;99211.09;5111617;28;19924;-76
2023/03/12 06:37:38;;;;;;;;;;;;;;;9.43;100.00;99208.03;5110865;28;19928;-76
2023/03/12 06:40:04;;;;;;;;;;;;;;;9.43;100.00;99223.84;5110824;28;20340;-76
2023/03/12 06:42:29;;;;;;;;;;;;;;;9.51;100.00;99232.84;5111697;28;19927;-74
2023/03/12 06:44:55;;;;;;;;;;;;;;;9.21;100.00;99237.34;5111015;28;19920;-75
2023/03/12 06:47:20;;;;;;;;;;;;;;;9.33;100.00;99246.75;5111571;28;20371;-75
2023/03/12 06:49:46;;;;;;;;;;;;;;;9.27;100.00;99249.94;5111728;28;19920;-76
2023/03/12 06:52:11;;;;;;;;;;;;;;;9.23;100.00;99247.75;5110893;28;19941;-75
2023/03/12 06:54:37;;;;;;;;;;;;;;;9.15;100.00;99248.44;5111789;28;19920;-76
2023/03/12 06:57:02;;;;;;;;;;;;;;;9.19;100.00;99257.72;5111318;28;20023;-75
2023/03/12 06:59:28;;;;;;;;;;;;;;;9.27;100.00;99260.47;5111333;28;19927;-76
2023/03/12 07:01:53;;;;;;;;;;;;;;;9.18;100.00;99268.41;5111562;28;19926;-76
2023/03/12 07:04:19;;;;;;;;;;;;;;;9.26;100.00;99274.59;5111826;28;20402;-76
2023/03/12 07:06:49;;;;;;;;;;;;;;;9.12;100.00;99277.69;5111653;28;19927;-74
2023/03/12 07:09:15;;;;;;;;;;;;;;;9.04;100.00;99291.53;5108778;28;19963;-77
2023/03/12 07:11:40;;;;;;;;;;;;;;;9.13;100.00;99297.75;5111062;28;19954;-76
2023/03/12 07:14:06;;;;;;;;;;;;;;;9.03;100.00;99300.41;5110668;28;19916;-75
2023/03/12 07:16:31;;;;;;;;;;;;;;;9.16;100.00;99309.81;5111362;28;19927;-75
2023/03/12 07:18:57;;;;;;;;;;;;;;;9.20;100.00;99311.19;5110908;28;19958;-76
2023/03/12 07:21:23;;;;;;;;;;;;;;;9.27;100.00;99322.84;5092298;28;19977;-75
2023/03/12 07:23:49;;;;;;;;;;;;;;;9.40;100.00;99318.13;5092503;28;19927;-74
2023/03/12 07:26:16;;;;;;;;;;;;;;;9.66;100.00;99313.09;5110301;28;20393;-74
2023/03/12 07:28:42;;;;;;;;;;;;;;;9.80;100.00;99310.81;5092588;28;19924;-74
2023/03/12 07:31:07;;;;;;;;;;;;;;;9.98;100.00;99308.25;5110909;28;19977;-76
2023/03/12 07:33:33;;;;;;;;;;;;;;;10.14;100.00;99319.00;5111267;28;19968;-76
2023/03/12 07:35:59;;;;;;;;;;;;;;;10.28;100.00;99328.28;5110777;28;19926;-76
2023/03/12 07:38:24;;;;;;;;;;;;;;;10.26;100.00;99328.41;5110925;28;20019;-75
2023/03/12 07:40:51;;;;;;;;;;;;;;;10.33;100.00;99327.81;5111630;28;20367;-75
2023/03/12 07:43:16;;;;;;;;;;;;;;;10.53;100.00;99334.66;5112453;28;19920;-75
2023/03/12 07:45:43;;;;;;;;;;;;;;;10.55;100.00;99338.81;5089798;28;19963;-75
2023/03/12 07:48:09;;;;;;;;;;;;;;;10.59;100.00;99334.06;5110751;28;19997;-73
2023/03/12 07:50:34;;;;;;;;;;;;;;;10.70;100.00;99331.22;5111476;28;19920;-74
2023/03/12 07:53:00;;;;;;;;;;;;;;;10.73;100.00;99333.56;5110945;28;19919;-74
2023/03/12 07:55:26;;;;;;;;;;;;;;;10.84;100.00;99328.06;5112760;28;19920;-74
2023/03/12 07:57:52;;;;;;;;;;;;;;;11.02;100.00;99339.47;5115207;28;19926;-75
2023/03/12 08:00:18;;;;;;;;;;;;;;;11.14;100.00;99353.25;5114702;28;20006;-75
2023/03/12 08:02:43;;;;;;;;;;;;;;;11.21;100.00;99350.84;5110938;28;19963;-75
2023/03/12 08:05:09;;;;;;;;;;;;;;;11.29;100.00;99348.28;5096338;28;20321;-75
2023/03/12 08:07:35;;;;;;;;;;;;;;;11.32;100.00;99347.97;5115160;28;19958;-76
2023/03/12 08:10:01;;;;;;;;;;;;;;;11.32;100.00;99353.25;5090731;28;20015;-74
2023/03/12 08:12:27;;;;;;;;;;;;;;;11.40;100.00;99361.25;5114153;28;19919;-78
2023/03/12 08:14:52;;;;;;;;;;;;;;;11.47;100.00;99357.84;5091727;28;19931;-75
2023/03/12 08:17:18;;;;;;;;;;;;;;;11.45;100.00;99356.34;5093273;28;19926;-75
2023/03/12 08:19:43;;;;;;;;;;;;;;;11.44;100.00;99362.59;5111915;28;20317;-73
2023/03/12 08:22:08;;;;;;;;;;;;;;;11.59;100.00;99368.19;5117568;27;20295;-75
2023/03/12 08:24:34;;;;;;;;;;;;;;;11.64;100.00;99364.09;5114487;27;19920;-76
2023/03/12 08:26:59;;;;;;;;;;;;;;;11.74;100.00;99367.50;5093985;28;20335;-74
2023/03/12 08:29:25;;;;;;;;;;;;;;;11.86;100.00;99374.19;5106457;28;19920;-74
2023/03/12 08:31:51;;;;;;;;;;;;;;;11.98;100.00;99376.56;5111098;28;19919;-73
2023/03/12 08:34:16;;;;;;;;;;;;;;;11.96;100.00;99375.91;5112150;28;19924;-74
2023/03/12 08:36:41;;;;;;;;;;;;;;;12.02;100.00;99383.19;5110108;28;20276;-74
2023/03/12 08:39:07;;;;;;;;;;;;;;;12.01;100.00;99381.56;5108668;28;19963;-74
2023/03/12 08:41:32;;;;;;;;;;;;;;;12.05;100.00;99382.91;5112377;28;20353;-73
2023/03/12 08:43:58;;;;;;;;;;;;;;;12.17;100.00;99369.25;5109662;28;19995;-74
2023/03/12 08:46:23;;;;;;;;;;;;;;;12.22;100.00;99374.91;5110806;28;20014;-74
2023/03/12 08:48:49;;;;;;;;;;;;;;;12.27;100.00;99379.72;5089553;28;19920;-73
2023/03/12 08:51:15;;;;;;;;;;;;;;;12.32;100.00;99380.06;5108868;28;19923;-74
2023/03/12 08:53:41;;;;;;;;;;;;;;;12.43;100.00;99382.44;5094504;28;20260;-74
2023/03/12 08:56:06;;;;;;;;;;;;;;;12.50;100.00;99380.81;5107590;28;19965;-75
2023/03/12 08:58:32;;;;;;;;;;;;;;;12.57;100.00;99378.34;5108099;28;19950;-74
2023/03/12 09:00:57;;;;;;;;;;;;;;;12.63;100.00;99378.56;5105287;28;20332;-73
2023/03/12 09:03:23;;;;;;;;;;;;;;;12.78;100.00;99377.94;5112386;28;19981;-76
2023/03/12 09:05:49;;;;;;;;;;;;;;;12.91;100.00;99396.84;5112586;28;19972;-76
2023/03/12 09:08:15;;;;;;;;;;;;;;;13.02;100.00;99399.19;5108448;28;20019;-76
2023/03/12 09:10:46;;;;;;;;;;;;;;;13.07;100.00;99396.91;5103711;22;19925;-74
2023/03/12 09:13:11;;;;;;;;;;;;;;;13.14;100.00;99403.22;5084749;28;19970;-76
2023/03/12 09:15:36;;;;;;;;;;;;;;;13.06;100.00;99413.78;5083035;28;19920;-76
2023/03/12 09:18:01;;;;;;;;;;;;;;;13.07;100.00;99410.13;5082497;28;20012;-75
2023/03/12 09:20:27;;;;;;;;;;;;;;;12.99;100.00;99416.25;5081540;28;20047;-76
2023/03/12 09:22:52;;;;;;;;;;;;;;;12.94;100.00;99418.53;5083218;28;20004;-76
2023/03/12 09:25:18;;;;;;;;;;;;;;;12.99;100.00;99423.34;5086088;28;19959;-75
2023/03/12 09:27:44;;;;;;;;;;;;;;;13.05;100.00;99428.84;5083121;28;20442;-75
2023/03/12 09:30:11;;;;;;;;;;;;;;;13.02;100.00;99415.91;5082720;28;20453;-75
2023/03/12 09:32:37;;;;;;;;;;;;;;;13.06;100.00;99416.44;5082774;28;19920;-76
2023/03/12 09:35:02;;;;;;;;;;;;;;;13.12;100.00;99423.75;5084242;28;19921;-76
2023/03/12 09:37:28;;;;;;;;;;;;;;;13.14;100.00;99424.41;5085877;28;19924;-75
2023/03/12 09:39:53;;;;;;;;;;;;;;;13.13;100.00;99420.13;5085583;28;20127;-76
2023/03/12 09:42:23;;;;;;;;;;;;;;;13.20;100.00;99414.97;5082777;28;20007;-75
2023/03/12 09:44:49;;;;;;;;;;;;;;;13.31;100.00;99415.50;5065426;28;20317;-72
2023/03/12 09:47:21;;;;;;;;;;;;;;;13.43;100.00;99419.50;5082771;28;20043;-72
2023/03/12 09:49:50;;;;;;;;;;;;;;;13.59;100.00;99412.56;5085187;28;20337;-74
2023/03/12 09:52:23;;;;;;;;;;;;;;;13.66;100.00;99413.56;5082901;28;19927;-72
2023/03/12 09:54:57;;;;;;;;;;;;;;;13.83;100.00;99415.22;5086253;28;19924;-73
2023/03/12 09:57:23;;;;;;;;;;;;;;;13.99;100.00;99407.22;5083424;28;19921;-71
2023/03/12 09:59:49;;;;;;;;;;;;;;;14.08;100.00;99403.56;5085235;28;19920;-73
2023/03/12 10:02:33;;;;;;;;;;;;;;;14.03;100.00;99405.88;5078844;28;20357;-74
2023/03/12 10:05:04;;;;;;;;;;;;;;;13.81;100.00;99404.75;5079628;28;20015;-73
2023/03/12 10:07:56;;;;;;;;;;;;;;;13.80;100.00;99410.22;5085859;28;19923;-75
2023/03/12 10:10:35;;;;;;;;;;;;;;;13.86;100.00;99420.16;5020497;28;19922;-75
2023/03/12 10:13:03;;;;;;;;;;;;;;;13.93;100.00;99419.34;5045099;28;19925;-73
2023/03/12 10:15:33;;;;;;;;;;;;;;;13.99;100.00;99419.66;5040032;28;19939;-72
2023/03/12 10:18:02;;;;;;;;;;;;;;;13.92;100.00;99419.50;5042157;28;19983;-75
2023/03/12 10:20:27;;;;;;;;;;;;;;;13.87;100.00;99416.53;5044424;28;19917;-74
2023/03/12 10:23:01;;;;;;;;;;;;;;;13.92;100.00;99414.19;5042477;28;20299;-73
2023/03/12 10:25:38;;;;;;;;;;;;;;;13.91;100.00;99407.22;5040634;28;19956;-73
2023/03/12 10:28:11;;;;;;;;;;;;;;;13.90;100.00;99417.00;5044823;28;19986;-74
2023/03/12 10:30:40;;;;;;;;;;;;;;;14.09;100.00;99417.66;5040932;28;19923;-73
2023/03/12 10:33:10;;;;;;;;;;;;;;;14.22;100.00;99413.47;5043572;28;20054;-74
2023/03/12 10:35:36;;;;;;;;;;;;;;;14.22;100.00;99416.13;5041386;28;20399;-74
2023/03/12 10:38:03;;;;;;;;;;;;;;;14.24;100.00;99414.16;5042851;28;20390;-73
2023/03/12 10:40:30;;;;;;;;;;;;;;;14.31;100.00;99420.41;5043021;28;19983;-73
2023/03/12 10:42:55;;;;;;;;;;;;;;;14.27;100.00;99424.41;5036076;28;20300;-73
2023/03/12 10:45:20;;;;;;;;;;;;;;;14.28;100.00;99425.25;5040464;28;19941;-72
2023/03/12 10:47:56;;;;;;;;;;;;;;;14.32;100.00;99422.06;5045040;28;20444;-74
2023/03/12 10:50:24;;;;;;;;;;;;;;;14.41;100.00;99414.13;5041991;28;19928;-73
2023/03/12 10:52:51;;;;;;;;;;;;;;;14.44;100.00;99408.47;5044942;28;20283;-73
2023/03/12 10:55:19;;;;;;;;;;;;;;;14.31;100.00;99415.09;5041315;28;19983;-72
2023/03/12 10:57:45;;;;;;;;;;;;;;;14.30;100.00;99410.00;5041377;28;20329;-73
2023/03/12 11:00:16;;;;;;;;;;;;;;;14.34;100.00;99416.59;5040791;28;19970;-73
2023/03/12 11:02:43;;;;;;;;;;;;;;;14.25;100.00;99418.47;5047242;28;19952;-72
2023/03/12 11:05:43;;;;;;;;;;;;;;;14.20;100.00;99426.09;5040531;28;20583;-73
2023/03/12 11:08:19;;;;;;;;;;;;;;;14.29;100.00;99414.47;5019714;28;19936;-74
2023/03/12 11:10:45;;;;;;;;;;;;;;;14.41;100.00;99424.75;5035111;28;19992;-73
2023/03/12 11:13:23;;;;;;;;;;;;;;;14.54;100.00;99419.75;5041089;28;19964;-73
2023/03/12 11:15:50;;;;;;;;;;;;;;;14.65;100.00;99419.38;5039863;28;20332;-73
2023/03/12 11:18:29;;;;;;;;;;;;;;;14.67;100.00;99414.69;5038671;28;19925;-71
2023/03/12 11:20:56;;;;;;;;;;;;;;;14.64;100.00;99415.03;5018723;28;20288;-72
2023/03/12 11:23:26;;;;;;;;;;;;;;;14.64;100.00;99409.75;5039317;28;20334;-73
2023/03/12 11:25:54;;;;;;;;;;;;;;;14.75;100.00;99406.69;5041802;28;19921;-71
2023/03/12 11:28:22;;;;;;;;;;;;;;;14.74;100.00;99400.56;5041896;28;20331;-72
2023/03/12 11:30:48;;;;;;;;;;;;;;;14.81;100.00;99398.03;5044058;28;20005;-73
2023/03/12 11:33:14;;;;;;;;;;;;;;;14.87;100.00;99402.66;5041938;28;19991;-73
2023/03/12 11:35:45;;;;;;;;;;;;;;;14.99;100.00;99403.09;5045446;28;20403;-76
2023/03/12 11:38:18;;;;;;;;;;;;;;;15.08;100.00;99405.53;5045567;28;20272;-75
2023/03/12 11:40:49;;;;;;;;;;;;;;;15.24;100.00;99395.81;5042371;28;19995;-72
2023/03/12 11:43:24;;;;;;;;;;;;;;;15.22;100.00;99401.28;5047008;28;19922;-73
2023/03/12 11:45:58;;;;;;;;;;;;;;;15.22;100.00;99400.47;5044730;28;19921;-75
2023/03/12 11:48:27;;;;;;;;;;;;;;;15.32;100.00;99403.72;5037744;28;20131;-73
2023/03/12 11:51:11;;;;;;;;;;;;;;;15.48;100.00;99401.78;5038005;28;19928;-76
2023/03/12 11:53:50;;;;;;;;;;;;;;;15.65;100.00;99402.50;5040532;28;19925;-75
2023/03/12 11:56:16;;;;;;;;;;;;;;;15.69;100.00;99403.81;5036731;28;19920;-74
2023/03/12 11:59:02;;;;;;;;;;;;;;;15.77;100.00;99409.06;5037314;28;19986;-75
2023/03/12 12:01:42;;;;;;;;;;;;;;;15.80;99.24;99414.00;5032196;28;19925;-74
2023/03/12 12:04:08;;;;;;;;;;;;;;;15.92;97.70;99412.56;5041844;28;19929;-73
2023/03/12 12:06:45;;;;;;;;;;;;;;;15.96;97.23;99408.53;5042006;28;20333;-74
2023/03/12 12:09:34;;;;;;;;;;;;;;;16.07;98.09;99394.00;5053969;28;19924;-74
2023/03/12 12:12:18;;;;;;;;;;;;;;;16.26;98.39;99397.94;5086012;28;19942;-75
2023/03/12 12:14:43;;;;;;;;;;;;;;;16.48;96.16;99402.34;5085171;28;19920;-75
2023/03/12 12:17:18;;;;;;;;;;;;;;;16.60;95.56;99400.91;4384803;28;10000754;-74
2023/03/12 12:19:43;;;;;;;;;;;;;;;16.65;95.26;99395.03;5081657;28;19960;-74
2023/03/12 12:22:17;;;;;;;;;;;;;;;16.67;94.13;99401.81;5084895;28;19928;-75
2023/03/12 12:25:09;;;;;;;;;;;;;;;16.69;92.70;99405.13;5066671;28;20338;-73
2023/03/12 12:27:44;;;;;;;;;;;;;;;16.83;92.62;99395.47;5084713;28;19974;-74
2023/03/12 12:30:15;;;;;;;;;;;;;;;16.99;92.02;99389.09;5082160;28;20436;-74
2023/03/12 12:32:43;;;;;;;;;;;;;;;17.09;90.83;99397.59;5084812;28;20598;-73
2023/03/12 12:35:12;;;;;;;;;;;;;;;17.14;90.78;99400.53;5065547;28;19936;-73
2023/03/12 12:37:47;;;;;;;;;;;;;;;17.20;89.63;99395.25;5074390;28;19920;-73
2023/03/12 12:40:15;;;;;;;;;;;;;;;17.18;89.26;99394.63;5077178;28;19930;-75
2023/03/12 12:42:50;;;;;;;;;;;;;;;17.31;89.72;99393.97;5076628;28;19935;-74